sensor_id;sensor_type;location;lat;lon;timestamp;P1;durP1;ratioP1;P2;durP2;ratioP2
6679;SDS011;3376;42.664;23.346;2023-09-12T00:01:05;2.90;;;2.77;;
6679;SDS011;3376;42.664;23.346;2023-09-12T00:03:32;2.80;;;2.10;;
6679;SDS011;3376;42.664;23.346;2023-09-12T00:06:00;2.87;;;2.73;;
6679;SDS011;3376;42.664;23.346;2023-09-12T00:08:28;3.70;;;3.17;;
6679;SDS011;3376;42.664;23.346;2023-09-12T00:10:58;2.70;;;2.60;;
6679;SDS011;3376;42.664;23.346;2023-09-12T00:13:26;3.47;;;2.93;;
6679;SDS011;3376;42.664;23.346;2023-09-12T00:15:52;3.00;;;2.83;;
6679;SDS011;3376;42.664;23.346;2023-09-12T00:18:21;8.90;;;2.87;;
6679;SDS011;3376;42.664;23.346;2023-09-12T00:20:48;3.70;;;3.03;;
6679;SDS011;3376;42.664;23.346;2023-09-12T00:23:15;8.30;;;3.90;;
6679;SDS011;3376;42.664;23.346;2023-09-12T00:25:42;3.43;;;3.23;;
6679;SDS011;3376;42.664;23.346;2023-09-12T00:28:08;2.97;;;2.77;;
6679;SDS011;3376;42.664;23.346;2023-09-12T00:30:35;3.00;;;2.87;;
6679;SDS011;3376;42.664;23.346;2023-09-12T00:33:02;2.97;;;2.80;;
6679;SDS011;3376;42.664;23.346;2023-09-12T00:35:31;2.97;;;2.77;;
6679;SDS011;3376;42.664;23.346;2023-09-12T00:37:57;4.30;;;2.67;;
6679;SDS011;3376;42.664;23.346;2023-09-12T00:40:24;2.60;;;2.50;;
6679;SDS011;3376;42.664;23.346;2023-09-12T00:42:53;4.07;;;2.67;;
6679;SDS011;3376;42.664;23.346;2023-09-12T00:45:20;4.43;;;2.77;;
6679;SDS011;3376;42.664;23.346;2023-09-12T00:47:47;3.77;;;3.37;;
6679;SDS011;3376;42.664;23.346;2023-09-12T00:50:16;2.87;;;2.57;;
6679;SDS011;3376;42.664;23.346;2023-09-12T00:52:45;5.07;;;2.60;;
6679;SDS011;3376;42.664;23.346;2023-09-12T00:55:13;3.10;;;2.80;;
6679;SDS011;3376;42.664;23.346;2023-09-12T00:57:41;3.00;;;2.83;;
6679;SDS011;3376;42.664;23.346;2023-09-12T01:00:10;4.43;;;2.93;;
6679;SDS011;3376;42.664;23.346;2023-09-12T01:02:39;4.17;;;2.93;;
6679;SDS011;3376;42.664;23.346;2023-09-12T01:05:06;3.07;;;2.80;;
6679;SDS011;3376;42.664;23.346;2023-09-12T01:07:34;2.90;;;2.80;;
6679;SDS011;3376;42.664;23.346;2023-09-12T01:10:03;3.20;;;3.00;;
6679;SDS011;3376;42.664;23.346;2023-09-12T01:12:31;3.63;;;3.03;;
6679;SDS011;3376;42.664;23.346;2023-09-12T01:14:57;3.97;;;2.90;;
6679;SDS011;3376;42.664;23.346;2023-09-12T01:17:24;6.37;;;3.50;;
6679;SDS011;3376;42.664;23.346;2023-09-12T01:19:52;4.17;;;2.87;;
6679;SDS011;3376;42.664;23.346;2023-09-12T01:22:35;2.77;;;2.67;;
6679;SDS011;3376;42.664;23.346;2023-09-12T01:25:24;3.03;;;2.83;;
6679;SDS011;3376;42.664;23.346;2023-09-12T01:28:07;3.17;;;2.97;;
6679;SDS011;3376;42.664;23.346;2023-09-12T01:30:36;8.47;;;3.03;;
6679;SDS011;3376;42.664;23.346;2023-09-12T01:33:05;3.20;;;2.97;;
6679;SDS011;3376;42.664;23.346;2023-09-12T01:35:33;3.10;;;2.90;;
6679;SDS011;3376;42.664;23.346;2023-09-12T01:37:59;3.33;;;3.03;;
6679;SDS011;3376;42.664;23.346;2023-09-12T01:40:29;3.77;;;3.43;;
6679;SDS011;3376;42.664;23.346;2023-09-12T01:43:00;3.43;;;2.80;;
6679;SDS011;3376;42.664;23.346;2023-09-12T01:45:31;3.40;;;3.20;;
6679;SDS011;3376;42.664;23.346;2023-09-12T01:47:59;3.27;;;2.97;;
6679;SDS011;3376;42.664;23.346;2023-09-12T01:50:27;3.53;;;3.23;;
6679;SDS011;3376;42.664;23.346;2023-09-12T01:52:55;4.53;;;2.73;;
6679;SDS011;3376;42.664;23.346;2023-09-12T01:55:22;3.30;;;3.10;;
6679;SDS011;3376;42.664;23.346;2023-09-12T01:57:51;2.90;;;2.80;;
6679;SDS011;3376;42.664;23.346;2023-09-12T02:00:18;4.73;;;2.63;;
6679;SDS011;3376;42.664;23.346;2023-09-12T02:02:46;3.63;;;3.43;;
6679;SDS011;3376;42.664;23.346;2023-09-12T02:05:14;3.33;;;3.13;;
6679;SDS011;3376;42.664;23.346;2023-09-12T02:07:44;3.43;;;3.23;;
6679;SDS011;3376;42.664;23.346;2023-09-12T02:10:11;3.27;;;3.07;;
6679;SDS011;3376;42.664;23.346;2023-09-12T02:12:38;2.90;;;2.80;;
6679;SDS011;3376;42.664;23.346;2023-09-12T02:15:06;2.87;;;2.63;;
6679;SDS011;3376;42.664;23.346;2023-09-12T02:17:33;3.07;;;2.87;;
6679;SDS011;3376;42.664;23.346;2023-09-12T02:20:02;3.60;;;3.30;;
6679;SDS011;3376;42.664;23.346;2023-09-12T02:22:30;4.57;;;3.17;;
6679;SDS011;3376;42.664;23.346;2023-09-12T02:24:57;3.57;;;3.33;;
6679;SDS011;3376;42.664;23.346;2023-09-12T02:27:24;3.00;;;2.90;;
6679;SDS011;3376;42.664;23.346;2023-09-12T02:29:51;4.20;;;2.97;;
6679;SDS011;3376;42.664;23.346;2023-09-12T02:32:17;2.90;;;2.63;;
6679;SDS011;3376;42.664;23.346;2023-09-12T02:34:44;3.37;;;3.13;;
6679;SDS011;3376;42.664;23.346;2023-09-12T02:37:12;5.83;;;2.97;;
6679;SDS011;3376;42.664;23.346;2023-09-12T02:39:40;3.43;;;3.13;;
6679;SDS011;3376;42.664;23.346;2023-09-12T02:42:07;3.57;;;3.27;;
6679;SDS011;3376;42.664;23.346;2023-09-12T02:44:34;3.27;;;3.00;;
6679;SDS011;3376;42.664;23.346;2023-09-12T02:47:01;3.73;;;3.33;;
6679;SDS011;3376;42.664;23.346;2023-09-12T02:49:28;3.40;;;3.20;;
6679;SDS011;3376;42.664;23.346;2023-09-12T02:51:54;3.10;;;3.00;;
6679;SDS011;3376;42.664;23.346;2023-09-12T02:54:22;3.93;;;3.63;;
6679;SDS011;3376;42.664;23.346;2023-09-12T02:56:49;3.40;;;3.20;;
6679;SDS011;3376;42.664;23.346;2023-09-12T02:59:16;3.63;;;3.07;;
6679;SDS011;3376;42.664;23.346;2023-09-12T03:01:42;4.27;;;3.97;;
6679;SDS011;3376;42.664;23.346;2023-09-12T03:04:09;4.67;;;2.90;;
6679;SDS011;3376;42.664;23.346;2023-09-12T03:06:36;3.33;;;3.23;;
6679;SDS011;3376;42.664;23.346;2023-09-12T03:09:03;3.73;;;3.43;;
6679;SDS011;3376;42.664;23.346;2023-09-12T03:11:32;5.90;;;3.60;;
6679;SDS011;3376;42.664;23.346;2023-09-12T03:13:59;7.37;;;3.33;;
6679;SDS011;3376;42.664;23.346;2023-09-12T03:16:26;3.43;;;3.23;;
6679;SDS011;3376;42.664;23.346;2023-09-12T03:18:53;3.77;;;3.50;;
6679;SDS011;3376;42.664;23.346;2023-09-12T03:21:19;4.00;;;3.53;;
6679;SDS011;3376;42.664;23.346;2023-09-12T03:23:46;3.70;;;3.50;;
6679;SDS011;3376;42.664;23.346;2023-09-12T03:26:13;3.90;;;3.60;;
6679;SDS011;3376;42.664;23.346;2023-09-12T03:28:42;3.53;;;3.43;;
6679;SDS011;3376;42.664;23.346;2023-09-12T03:31:10;4.67;;;3.13;;
6679;SDS011;3376;42.664;23.346;2023-09-12T03:33:37;3.53;;;3.23;;
6679;SDS011;3376;42.664;23.346;2023-09-12T03:36:04;4.27;;;3.97;;
6679;SDS011;3376;42.664;23.346;2023-09-12T03:38:31;4.03;;;3.73;;
6679;SDS011;3376;42.664;23.346;2023-09-12T03:40:58;3.60;;;3.40;;
6679;SDS011;3376;42.664;23.346;2023-09-12T03:43:25;3.73;;;3.53;;
6679;SDS011;3376;42.664;23.346;2023-09-12T03:45:53;4.47;;;3.73;;
6679;SDS011;3376;42.664;23.346;2023-09-12T03:48:20;4.10;;;3.90;;
6679;SDS011;3376;42.664;23.346;2023-09-12T03:50:47;5.23;;;4.63;;
6679;SDS011;3376;42.664;23.346;2023-09-12T03:53:14;4.60;;;4.30;;
6679;SDS011;3376;42.664;23.346;2023-09-12T03:55:41;5.33;;;4.17;;
6679;SDS011;3376;42.664;23.346;2023-09-12T03:58:08;7.13;;;5.43;;
6679;SDS011;3376;42.664;23.346;2023-09-12T04:00:34;4.13;;;3.90;;
6679;SDS011;3376;42.664;23.346;2023-09-12T04:03:03;4.73;;;4.43;;
6679;SDS011;3376;42.664;23.346;2023-09-12T04:05:30;8.00;;;4.57;;
6679;SDS011;3376;42.664;23.346;2023-09-12T04:07:57;6.93;;;4.93;;
6679;SDS011;3376;42.664;23.346;2023-09-12T04:10:23;4.67;;;4.37;;
6679;SDS011;3376;42.664;23.346;2023-09-12T04:12:50;11.90;;;4.60;;
6679;SDS011;3376;42.664;23.346;2023-09-12T04:15:17;5.43;;;4.60;;
6679;SDS011;3376;42.664;23.346;2023-09-12T04:17:43;5.17;;;4.77;;
6679;SDS011;3376;42.664;23.346;2023-09-12T04:20:12;7.93;;;4.53;;
6679;SDS011;3376;42.664;23.346;2023-09-12T04:22:39;6.00;;;3.73;;
6679;SDS011;3376;42.664;23.346;2023-09-12T04:25:06;9.30;;;4.83;;
6679;SDS011;3376;42.664;23.346;2023-09-12T04:27:33;5.83;;;4.63;;
6679;SDS011;3376;42.664;23.346;2023-09-12T04:30:00;7.77;;;4.37;;
6679;SDS011;3376;42.664;23.346;2023-09-12T04:32:27;4.80;;;4.40;;
6679;SDS011;3376;42.664;23.346;2023-09-12T04:34:54;5.50;;;4.43;;
6679;SDS011;3376;42.664;23.346;2023-09-12T04:37:23;5.83;;;4.43;;
6679;SDS011;3376;42.664;23.346;2023-09-12T04:39:49;4.80;;;4.40;;
6679;SDS011;3376;42.664;23.346;2023-09-12T04:42:17;4.40;;;4.20;;
6679;SDS011;3376;42.664;23.346;2023-09-12T04:44:43;6.20;;;4.40;;
6679;SDS011;3376;42.664;23.346;2023-09-12T04:47:10;9.57;;;4.57;;
6679;SDS011;3376;42.664;23.346;2023-09-12T04:49:37;6.20;;;4.70;;
6679;SDS011;3376;42.664;23.346;2023-09-12T04:52:05;4.20;;;3.90;;
6679;SDS011;3376;42.664;23.346;2023-09-12T04:54:33;5.60;;;5.10;;
6679;SDS011;3376;42.664;23.346;2023-09-12T04:57:01;7.00;;;4.17;;
6679;SDS011;3376;42.664;23.346;2023-09-12T04:59:27;4.70;;;4.23;;
6679;SDS011;3376;42.664;23.346;2023-09-12T05:01:54;8.63;;;5.07;;
6679;SDS011;3376;42.664;23.346;2023-09-12T05:04:21;8.60;;;3.87;;
6679;SDS011;3376;42.664;23.346;2023-09-12T05:06:47;5.77;;;4.77;;
6679;SDS011;3376;42.664;23.346;2023-09-12T05:09:14;7.77;;;4.40;;
6679;SDS011;3376;42.664;23.346;2023-09-12T05:11:42;5.63;;;4.67;;
6679;SDS011;3376;42.664;23.346;2023-09-12T05:14:09;8.00;;;4.40;;
6679;SDS011;3376;42.664;23.346;2023-09-12T05:16:36;6.07;;;5.53;;
6679;SDS011;3376;42.664;23.346;2023-09-12T05:19:03;15.00;;;10.30;;
6679;SDS011;3376;42.664;23.346;2023-09-12T05:21:30;8.00;;;7.27;;
6679;SDS011;3376;42.664;23.346;2023-09-12T05:23:56;12.10;;;6.97;;
6679;SDS011;3376;42.664;23.346;2023-09-12T05:26:23;6.13;;;5.30;;
6679;SDS011;3376;42.664;23.346;2023-09-12T05:28:51;10.33;;;5.63;;
6679;SDS011;3376;42.664;23.346;2023-09-12T05:31:18;6.00;;;4.87;;
6679;SDS011;3376;42.664;23.346;2023-09-12T05:33:45;4.73;;;4.50;;
6679;SDS011;3376;42.664;23.346;2023-09-12T05:36:14;8.60;;;4.57;;
6679;SDS011;3376;42.664;23.346;2023-09-12T05:38:40;6.67;;;4.57;;
6679;SDS011;3376;42.664;23.346;2023-09-12T05:41:07;5.77;;;4.87;;
6679;SDS011;3376;42.664;23.346;2023-09-12T05:43:34;4.37;;;4.07;;
6679;SDS011;3376;42.664;23.346;2023-09-12T05:46:02;5.57;;;5.07;;
6679;SDS011;3376;42.664;23.346;2023-09-12T05:48:28;8.20;;;7.40;;
6679;SDS011;3376;42.664;23.346;2023-09-12T05:50:55;9.87;;;6.63;;
6679;SDS011;3376;42.664;23.346;2023-09-12T05:53:22;10.00;;;5.73;;
6679;SDS011;3376;42.664;23.346;2023-09-12T05:55:49;5.27;;;4.77;;
6679;SDS011;3376;42.664;23.346;2023-09-12T05:58:15;8.70;;;5.97;;
6679;SDS011;3376;42.664;23.346;2023-09-12T06:00:42;6.57;;;5.97;;
6679;SDS011;3376;42.664;23.346;2023-09-12T06:03:13;5.50;;;5.00;;
6679;SDS011;3376;42.664;23.346;2023-09-12T06:05:41;8.50;;;5.53;;
6679;SDS011;3376;42.664;23.346;2023-09-12T06:08:07;6.00;;;5.60;;
6679;SDS011;3376;42.664;23.346;2023-09-12T06:10:34;6.50;;;5.67;;
6679;SDS011;3376;42.664;23.346;2023-09-12T06:13:01;5.83;;;5.23;;
6679;SDS011;3376;42.664;23.346;2023-09-12T06:15:28;5.87;;;5.13;;
6679;SDS011;3376;42.664;23.346;2023-09-12T06:17:55;6.47;;;6.07;;
6679;SDS011;3376;42.664;23.346;2023-09-12T06:20:23;7.63;;;5.20;;
6679;SDS011;3376;42.664;23.346;2023-09-12T06:22:50;7.57;;;5.80;;
6679;SDS011;3376;42.664;23.346;2023-09-12T06:25:17;6.87;;;6.10;;
6679;SDS011;3376;42.664;23.346;2023-09-12T06:27:43;6.17;;;5.70;;
6679;SDS011;3376;42.664;23.346;2023-09-12T06:30:11;8.57;;;7.70;;
6679;SDS011;3376;42.664;23.346;2023-09-12T06:32:38;7.07;;;6.20;;
6679;SDS011;3376;42.664;23.346;2023-09-12T06:35:05;7.93;;;6.40;;
6679;SDS011;3376;42.664;23.346;2023-09-12T06:37:36;8.20;;;5.77;;
6679;SDS011;3376;42.664;23.346;2023-09-12T06:40:04;7.53;;;5.63;;
6679;SDS011;3376;42.664;23.346;2023-09-12T06:42:31;11.13;;;6.43;;
6679;SDS011;3376;42.664;23.346;2023-09-12T06:44:58;8.97;;;5.97;;
6679;SDS011;3376;42.664;23.346;2023-09-12T06:47:25;5.47;;;5.10;;
6679;SDS011;3376;42.664;23.346;2023-09-12T06:49:51;7.03;;;6.50;;
6679;SDS011;3376;42.664;23.346;2023-09-12T06:52:18;6.57;;;5.90;;
6679;SDS011;3376;42.664;23.346;2023-09-12T06:54:46;5.60;;;5.07;;
6679;SDS011;3376;42.664;23.346;2023-09-12T06:57:13;7.43;;;4.90;;
6679;SDS011;3376;42.664;23.346;2023-09-12T06:59:40;5.13;;;4.73;;
6679;SDS011;3376;42.664;23.346;2023-09-12T07:02:07;5.90;;;5.40;;
6679;SDS011;3376;42.664;23.346;2023-09-12T07:04:35;5.83;;;4.57;;
6679;SDS011;3376;42.664;23.346;2023-09-12T07:07:01;4.77;;;4.47;;
6679;SDS011;3376;42.664;23.346;2023-09-12T07:09:29;4.63;;;4.23;;
6679;SDS011;3376;42.664;23.346;2023-09-12T07:11:57;6.97;;;4.40;;
6679;SDS011;3376;42.664;23.346;2023-09-12T07:14:24;4.77;;;4.27;;
6679;SDS011;3376;42.664;23.346;2023-09-12T07:16:51;13.63;;;4.20;;
6679;SDS011;3376;42.664;23.346;2023-09-12T07:19:17;3.90;;;3.60;;
6679;SDS011;3376;42.664;23.346;2023-09-12T07:21:44;6.47;;;4.63;;
6679;SDS011;3376;42.664;23.346;2023-09-12T07:24:11;4.93;;;3.97;;
6679;SDS011;3376;42.664;23.346;2023-09-12T07:26:38;5.23;;;3.87;;
6679;SDS011;3376;42.664;23.346;2023-09-12T07:29:06;6.50;;;3.63;;
6679;SDS011;3376;42.664;23.346;2023-09-12T07:31:33;3.73;;;3.53;;
6679;SDS011;3376;42.664;23.346;2023-09-12T07:33:59;4.23;;;3.70;;
6679;SDS011;3376;42.664;23.346;2023-09-12T07:36:27;4.73;;;3.63;;
6679;SDS011;3376;42.664;23.346;2023-09-12T07:38:53;6.73;;;3.70;;
6679;SDS011;3376;42.664;23.346;2023-09-12T07:41:20;6.93;;;2.97;;
6679;SDS011;3376;42.664;23.346;2023-09-12T07:43:47;4.07;;;3.17;;
6679;SDS011;3376;42.664;23.346;2023-09-12T07:46:15;3.13;;;2.83;;
6679;SDS011;3376;42.664;23.346;2023-09-12T07:48:42;5.80;;;3.67;;
6679;SDS011;3376;42.664;23.346;2023-09-12T07:51:12;3.83;;;3.50;;
6679;SDS011;3376;42.664;23.346;2023-09-12T07:53:39;4.53;;;4.00;;
6679;SDS011;3376;42.664;23.346;2023-09-12T07:56:07;4.60;;;3.90;;
6679;SDS011;3376;42.664;23.346;2023-09-12T07:58:35;5.33;;;4.93;;
6679;SDS011;3376;42.664;23.346;2023-09-12T08:01:04;4.20;;;3.80;;
6679;SDS011;3376;42.664;23.346;2023-09-12T08:03:33;6.25;;;3.30;;
6679;SDS011;3376;42.664;23.346;2023-09-12T08:06:00;6.80;;;3.75;;
6679;SDS011;3376;42.664;23.346;2023-09-12T08:08:27;6.70;;;3.58;;
6679;SDS011;3376;42.664;23.346;2023-09-12T08:10:54;7.65;;;3.55;;
6679;SDS011;3376;42.664;23.346;2023-09-12T08:13:21;3.85;;;3.65;;
6679;SDS011;3376;42.664;23.346;2023-09-12T08:15:47;4.47;;;4.05;;
6679;SDS011;3376;42.664;23.346;2023-09-12T08:18:14;11.50;;;3.72;;
6679;SDS011;3376;42.664;23.346;2023-09-12T08:20:43;4.30;;;3.97;;
6679;SDS011;3376;42.664;23.346;2023-09-12T08:23:10;6.28;;;3.75;;
6679;SDS011;3376;42.664;23.346;2023-09-12T08:25:36;6.97;;;3.80;;
6679;SDS011;3376;42.664;23.346;2023-09-12T08:28:03;6.50;;;4.40;;
6679;SDS011;3376;42.664;23.346;2023-09-12T08:30:30;5.03;;;3.55;;
6679;SDS011;3376;42.664;23.346;2023-09-12T08:32:58;5.03;;;3.25;;
6679;SDS011;3376;42.664;23.346;2023-09-12T08:35:27;3.53;;;3.33;;
6679;SDS011;3376;42.664;23.346;2023-09-12T08:37:56;3.95;;;2.85;;
6679;SDS011;3376;42.664;23.346;2023-09-12T08:40:22;5.45;;;3.22;;
6679;SDS011;3376;42.664;23.346;2023-09-12T08:42:49;9.27;;;3.42;;
6679;SDS011;3376;42.664;23.346;2023-09-12T08:45:19;9.95;;;3.15;;
6679;SDS011;3376;42.664;23.346;2023-09-12T08:47:48;13.10;;;3.13;;
6679;SDS011;3376;42.664;23.346;2023-09-12T08:50:16;5.05;;;3.05;;
6679;SDS011;3376;42.664;23.346;2023-09-12T08:52:44;3.50;;;3.05;;
6679;SDS011;3376;42.664;23.346;2023-09-12T08:55:13;7.47;;;2.92;;
6679;SDS011;3376;42.664;23.346;2023-09-12T08:57:40;11.68;;;2.90;;
6679;SDS011;3376;42.664;23.346;2023-09-12T09:00:08;3.95;;;2.97;;
6679;SDS011;3376;42.664;23.346;2023-09-12T09:02:37;3.55;;;2.95;;
6679;SDS011;3376;42.664;23.346;2023-09-12T09:05:05;4.25;;;2.70;;
6679;SDS011;3376;42.664;23.346;2023-09-12T09:07:34;4.18;;;2.80;;
6679;SDS011;3376;42.664;23.346;2023-09-12T09:10:02;3.55;;;2.88;;
6679;SDS011;3376;42.664;23.346;2023-09-12T09:12:32;3.40;;;2.22;;
6679;SDS011;3376;42.664;23.346;2023-09-12T09:14:59;4.43;;;2.60;;
6679;SDS011;3376;42.664;23.346;2023-09-12T09:17:46;4.25;;;2.42;;
6679;SDS011;3376;42.664;23.346;2023-09-12T09:20:18;3.25;;;2.55;;
6679;SDS011;3376;42.664;23.346;2023-09-12T09:22:55;3.03;;;2.83;;
6679;SDS011;3376;42.664;23.346;2023-09-12T09:25:23;3.60;;;2.95;;
6679;SDS011;3376;42.664;23.346;2023-09-12T09:27:51;5.85;;;2.85;;
6679;SDS011;3376;42.664;23.346;2023-09-12T09:30:17;2.72;;;2.63;;
6679;SDS011;3376;42.664;23.346;2023-09-12T09:32:45;7.10;;;3.05;;
6679;SDS011;3376;42.664;23.346;2023-09-12T09:35:13;3.03;;;2.78;;
6679;SDS011;3376;42.664;23.346;2023-09-12T09:37:40;4.78;;;2.60;;
6679;SDS011;3376;42.664;23.346;2023-09-12T09:40:07;4.03;;;2.70;;
6679;SDS011;3376;42.664;23.346;2023-09-12T09:42:36;6.43;;;2.88;;
6679;SDS011;3376;42.664;23.346;2023-09-12T09:45:06;3.30;;;3.10;;
6679;SDS011;3376;42.664;23.346;2023-09-12T09:47:33;5.47;;;3.17;;
6679;SDS011;3376;42.664;23.346;2023-09-12T09:50:00;4.90;;;3.00;;
6679;SDS011;3376;42.664;23.346;2023-09-12T09:52:26;6.75;;;3.42;;
6679;SDS011;3376;42.664;23.346;2023-09-12T09:54:53;3.45;;;3.20;;
6679;SDS011;3376;42.664;23.346;2023-09-12T09:57:20;3.90;;;2.72;;
6679;SDS011;3376;42.664;23.346;2023-09-12T09:59:51;5.22;;;2.88;;
6679;SDS011;3376;42.664;23.346;2023-09-12T10:02:19;3.50;;;2.67;;
6679;SDS011;3376;42.664;23.346;2023-09-12T10:04:51;5.57;;;2.88;;
6679;SDS011;3376;42.664;23.346;2023-09-12T10:07:20;9.23;;;2.80;;
6679;SDS011;3376;42.664;23.346;2023-09-12T10:09:48;3.90;;;3.25;;
6679;SDS011;3376;42.664;23.346;2023-09-12T10:12:15;9.98;;;2.85;;
6679;SDS011;3376;42.664;23.346;2023-09-12T10:14:42;5.18;;;2.47;;
6679;SDS011;3376;42.664;23.346;2023-09-12T10:17:10;3.00;;;2.45;;
6679;SDS011;3376;42.664;23.346;2023-09-12T10:19:41;3.05;;;2.85;;
6679;SDS011;3376;42.664;23.346;2023-09-12T10:22:15;3.15;;;2.95;;
6679;SDS011;3376;42.664;23.346;2023-09-12T10:24:47;3.50;;;2.58;;
6679;SDS011;3376;42.664;23.346;2023-09-12T10:27:19;2.60;;;2.45;;
6679;SDS011;3376;42.664;23.346;2023-09-12T10:29:48;2.50;;;2.40;;
6679;SDS011;3376;42.664;23.346;2023-09-12T10:32:18;2.95;;;2.75;;
6679;SDS011;3376;42.664;23.346;2023-09-12T10:34:46;3.95;;;3.50;;
6679;SDS011;3376;42.664;23.346;2023-09-12T10:37:15;5.55;;;3.17;;
6679;SDS011;3376;42.664;23.346;2023-09-12T10:39:43;3.90;;;2.88;;
6679;SDS011;3376;42.664;23.346;2023-09-12T10:42:11;3.83;;;2.90;;
6679;SDS011;3376;42.664;23.346;2023-09-12T10:44:39;3.83;;;2.42;;
6679;SDS011;3376;42.664;23.346;2023-09-12T10:47:06;4.20;;;2.60;;
6679;SDS011;3376;42.664;23.346;2023-09-12T10:49:34;4.43;;;2.90;;
6679;SDS011;3376;42.664;23.346;2023-09-12T10:52:02;6.88;;;2.60;;
6679;SDS011;3376;42.664;23.346;2023-09-12T10:54:35;3.15;;;2.83;;
6679;SDS011;3376;42.664;23.346;2023-09-12T10:57:03;2.50;;;2.30;;
6679;SDS011;3376;42.664;23.346;2023-09-12T10:59:30;3.03;;;2.45;;
6679;SDS011;3376;42.664;23.346;2023-09-12T11:04:54;4.63;;;2.72;;
6679;SDS011;3376;42.664;23.346;2023-09-12T11:07:32;2.95;;;2.47;;
6679;SDS011;3376;42.664;23.346;2023-09-12T11:10:17;2.53;;;2.42;;
6679;SDS011;3376;42.664;23.346;2023-09-12T11:12:46;3.15;;;2.88;;
6679;SDS011;3376;42.664;23.346;2023-09-12T11:15:14;4.15;;;2.95;;
6679;SDS011;3376;42.664;23.346;2023-09-12T11:17:42;6.07;;;2.97;;
6679;SDS011;3376;42.664;23.346;2023-09-12T11:20:09;3.45;;;2.85;;
6679;SDS011;3376;42.664;23.346;2023-09-12T11:22:38;2.08;;;1.98;;
6679;SDS011;3376;42.664;23.346;2023-09-12T11:25:15;2.65;;;2.45;;
6679;SDS011;3376;42.664;23.346;2023-09-12T11:27:44;3.40;;;2.20;;
6679;SDS011;3376;42.664;23.346;2023-09-12T11:30:12;4.07;;;2.35;;
6679;SDS011;3376;42.664;23.346;2023-09-12T11:32:39;2.65;;;2.45;;
6679;SDS011;3376;42.664;23.346;2023-09-12T11:35:07;2.60;;;2.50;;
6679;SDS011;3376;42.664;23.346;2023-09-12T11:37:34;2.78;;;2.47;;
6679;SDS011;3376;42.664;23.346;2023-09-12T11:40:04;3.00;;;2.55;;
6679;SDS011;3376;42.664;23.346;2023-09-12T11:42:42;4.57;;;2.78;;
6679;SDS011;3376;42.664;23.346;2023-09-12T11:45:11;4.95;;;2.60;;
6679;SDS011;3376;42.664;23.346;2023-09-12T11:47:39;3.78;;;2.83;;
6679;SDS011;3376;42.664;23.346;2023-09-12T11:50:07;2.65;;;2.17;;
6679;SDS011;3376;42.664;23.346;2023-09-12T11:52:35;3.15;;;2.58;;
6679;SDS011;3376;42.664;23.346;2023-09-12T11:55:04;3.45;;;2.72;;
6679;SDS011;3376;42.664;23.346;2023-09-12T11:57:32;3.70;;;2.42;;
6679;SDS011;3376;42.664;23.346;2023-09-12T11:59:59;2.70;;;2.50;;
6679;SDS011;3376;42.664;23.346;2023-09-12T12:02:33;3.45;;;3.15;;
6679;SDS011;3376;42.664;23.346;2023-09-12T12:05:00;3.38;;;3.08;;
6679;SDS011;3376;42.664;23.346;2023-09-12T12:07:29;2.45;;;2.30;;
6679;SDS011;3376;42.664;23.346;2023-09-12T12:09:56;3.75;;;2.55;;
6679;SDS011;3376;42.664;23.346;2023-09-12T12:12:24;4.25;;;3.08;;
6679;SDS011;3376;42.664;23.346;2023-09-12T12:14:51;2.67;;;2.47;;
6679;SDS011;3376;42.664;23.346;2023-09-12T12:17:18;2.45;;;2.20;;
6679;SDS011;3376;42.664;23.346;2023-09-12T12:19:45;3.22;;;2.97;;
6679;SDS011;3376;42.664;23.346;2023-09-12T12:22:12;3.33;;;3.08;;
6679;SDS011;3376;42.664;23.346;2023-09-12T12:24:39;3.53;;;3.22;;
6679;SDS011;3376;42.664;23.346;2023-09-12T12:27:06;5.35;;;2.95;;
6679;SDS011;3376;42.664;23.346;2023-09-12T12:29:36;4.00;;;3.10;;
6679;SDS011;3376;42.664;23.346;2023-09-12T12:32:05;2.65;;;2.50;;
6679;SDS011;3376;42.664;23.346;2023-09-12T12:34:34;7.53;;;3.25;;
6679;SDS011;3376;42.664;23.346;2023-09-12T12:37:00;2.90;;;2.72;;
6679;SDS011;3376;42.664;23.346;2023-09-12T12:39:27;3.67;;;2.90;;
6679;SDS011;3376;42.664;23.346;2023-09-12T12:41:54;2.78;;;2.55;;
6679;SDS011;3376;42.664;23.346;2023-09-12T12:44:21;3.20;;;2.60;;
6679;SDS011;3376;42.664;23.346;2023-09-12T12:46:50;3.15;;;2.90;;
6679;SDS011;3376;42.664;23.346;2023-09-12T12:49:17;4.55;;;2.88;;
6679;SDS011;3376;42.664;23.346;2023-09-12T12:51:44;3.03;;;2.83;;
6679;SDS011;3376;42.664;23.346;2023-09-12T12:54:12;6.68;;;3.10;;
6679;SDS011;3376;42.664;23.346;2023-09-12T12:56:39;6.38;;;3.00;;
6679;SDS011;3376;42.664;23.346;2023-09-12T12:59:07;3.22;;;2.95;;
6679;SDS011;3376;42.664;23.346;2023-09-12T13:01:34;3.63;;;3.38;;
6679;SDS011;3376;42.664;23.346;2023-09-12T13:04:05;6.03;;;3.20;;
6679;SDS011;3376;42.664;23.346;2023-09-12T13:06:32;7.72;;;3.20;;
6679;SDS011;3376;42.664;23.346;2023-09-12T13:09:01;2.83;;;2.72;;
6679;SDS011;3376;42.664;23.346;2023-09-12T13:11:30;6.88;;;3.22;;
6679;SDS011;3376;42.664;23.346;2023-09-12T13:13:58;3.90;;;3.45;;
6679;SDS011;3376;42.664;23.346;2023-09-12T13:16:25;4.07;;;3.58;;
6679;SDS011;3376;42.664;23.346;2023-09-12T13:18:52;4.70;;;2.88;;
6679;SDS011;3376;42.664;23.346;2023-09-12T13:21:20;3.38;;;3.13;;
6679;SDS011;3376;42.664;23.346;2023-09-12T13:23:46;3.28;;;3.03;;
6679;SDS011;3376;42.664;23.346;2023-09-12T13:26:13;6.47;;;2.85;;
6679;SDS011;3376;42.664;23.346;2023-09-12T13:28:40;3.47;;;3.17;;
6679;SDS011;3376;42.664;23.346;2023-09-12T13:31:07;3.40;;;3.00;;
6679;SDS011;3376;42.664;23.346;2023-09-12T13:33:33;2.90;;;2.70;;
6679;SDS011;3376;42.664;23.346;2023-09-12T13:36:00;3.42;;;2.75;;
6679;SDS011;3376;42.664;23.346;2023-09-12T13:38:28;3.40;;;3.10;;
6679;SDS011;3376;42.664;23.346;2023-09-12T13:40:55;3.80;;;3.03;;
6679;SDS011;3376;42.664;23.346;2023-09-12T13:43:22;5.97;;;2.90;;
6679;SDS011;3376;42.664;23.346;2023-09-12T13:45:49;3.90;;;3.30;;
6679;SDS011;3376;42.664;23.346;2023-09-12T13:48:16;2.90;;;2.65;;
6679;SDS011;3376;42.664;23.346;2023-09-12T13:50:43;5.93;;;2.88;;
6679;SDS011;3376;42.664;23.346;2023-09-12T13:53:10;4.63;;;2.60;;
6679;SDS011;3376;42.664;23.346;2023-09-12T13:55:38;3.83;;;2.80;;
6679;SDS011;3376;42.664;23.346;2023-09-12T13:58:05;3.40;;;2.50;;
6679;SDS011;3376;42.664;23.346;2023-09-12T14:00:32;5.78;;;3.28;;
6679;SDS011;3376;42.664;23.346;2023-09-12T14:03:00;3.80;;;2.97;;
6679;SDS011;3376;42.664;23.346;2023-09-12T14:05:28;4.90;;;2.70;;
6679;SDS011;3376;42.664;23.346;2023-09-12T14:07:54;5.90;;;2.72;;
6679;SDS011;3376;42.664;23.346;2023-09-12T14:10:21;4.38;;;2.83;;
6679;SDS011;3376;42.664;23.346;2023-09-12T14:12:49;3.42;;;3.13;;
6679;SDS011;3376;42.664;23.346;2023-09-12T14:15:16;5.65;;;2.55;;
6679;SDS011;3376;42.664;23.346;2023-09-12T14:17:42;3.83;;;2.40;;
6679;SDS011;3376;42.664;23.346;2023-09-12T14:20:09;4.13;;;3.20;;
6679;SDS011;3376;42.664;23.346;2023-09-12T14:22:40;3.30;;;2.80;;
6679;SDS011;3376;42.664;23.346;2023-09-12T14:25:07;8.10;;;3.00;;
6679;SDS011;3376;42.664;23.346;2023-09-12T14:27:34;3.20;;;2.90;;
6679;SDS011;3376;42.664;23.346;2023-09-12T14:30:02;4.22;;;3.35;;
6679;SDS011;3376;42.664;23.346;2023-09-12T14:32:29;3.83;;;2.20;;
6679;SDS011;3376;42.664;23.346;2023-09-12T14:34:56;5.05;;;3.17;;
6679;SDS011;3376;42.664;23.346;2023-09-12T14:37:23;4.13;;;2.97;;
6679;SDS011;3376;42.664;23.346;2023-09-12T14:39:52;5.07;;;3.08;;
6679;SDS011;3376;42.664;23.346;2023-09-12T14:42:20;2.92;;;2.72;;
6679;SDS011;3376;42.664;23.346;2023-09-12T14:44:47;4.35;;;2.63;;
6679;SDS011;3376;42.664;23.346;2023-09-12T14:47:15;6.13;;;2.50;;
6679;SDS011;3376;42.664;23.346;2023-09-12T14:49:41;3.35;;;3.05;;
6679;SDS011;3376;42.664;23.346;2023-09-12T14:52:08;7.43;;;2.83;;
6679;SDS011;3376;42.664;23.346;2023-09-12T14:54:35;4.22;;;2.90;;
6679;SDS011;3376;42.664;23.346;2023-09-12T14:57:01;5.70;;;2.75;;
6679;SDS011;3376;42.664;23.346;2023-09-12T14:59:28;4.38;;;2.60;;
6679;SDS011;3376;42.664;23.346;2023-09-12T15:01:55;3.28;;;3.03;;
6679;SDS011;3376;42.664;23.346;2023-09-12T15:04:23;3.33;;;3.08;;
6679;SDS011;3376;42.664;23.346;2023-09-12T15:06:50;3.38;;;2.88;;